createdAt,value
2018-12-15T00:01:50.080Z,10.73
2018-12-15T00:04:18.546Z,10.43
2018-12-15T00:06:46.928Z,10.83
2018-12-15T00:09:15.331Z,10.23
2018-12-15T00:11:43.712Z,10.33
2018-12-15T00:14:12.118Z,10.53
2018-12-15T00:16:40.524Z,9.37
2018-12-15T00:19:08.909Z,9.10
2018-12-15T00:21:37.296Z,9.40
2018-12-15T00:24:05.676Z,9.40
2018-12-15T00:26:34.078Z,9.23
2018-12-15T00:29:02.482Z,9.27
2018-12-15T00:31:30.855Z,9.17
2018-12-15T00:33:59.255Z,8.83
2018-12-15T00:36:27.639Z,8.53
2018-12-15T00:38:56.119Z,8.90
2018-12-15T00:41:24.508Z,8.37
2018-12-15T00:43:52.984Z,8.57
2018-12-15T00:46:21.406Z,8.23
2018-12-15T00:48:49.790Z,8.73
2018-12-15T00:51:18.179Z,8.57
2018-12-15T00:53:46.590Z,8.43
2018-12-15T00:56:14.979Z,7.80
2018-12-15T00:58:43.361Z,7.80
2018-12-15T01:01:11.756Z,8.47
2018-12-15T01:03:40.139Z,8.60
2018-12-15T01:06:08.534Z,8.47
2018-12-15T01:08:36.911Z,7.60
2018-12-15T01:11:05.319Z,8.13
2018-12-15T01:13:33.714Z,7.23
2018-12-15T01:16:02.100Z,7.33
2018-12-15T01:18:30.492Z,7.57
2018-12-15T01:20:58.887Z,7.57
2018-12-15T01:23:27.259Z,7.30
2018-12-15T01:25:55.658Z,6.87
2018-12-15T01:28:24.058Z,7.90
2018-12-15T01:30:52.478Z,7.53
2018-12-15T01:33:21.165Z,7.27
2018-12-15T01:35:49.558Z,6.73
2018-12-15T01:38:17.959Z,7.20
2018-12-15T01:40:46.358Z,6.77
2018-12-15T01:43:14.763Z,7.43
2018-12-15T01:45:43.218Z,7.40
2018-12-15T01:48:11.592Z,7.10
2018-12-15T01:50:40.000Z,7.23
2018-12-15T01:53:08.431Z,6.80
2018-12-15T01:55:36.827Z,6.97
2018-12-15T01:58:05.259Z,7.27
2018-12-15T02:00:33.722Z,6.77
2018-12-15T02:03:02.095Z,6.60
2018-12-15T02:05:30.503Z,6.87
2018-12-15T02:07:58.915Z,7.20
2018-12-15T02:10:27.309Z,6.70
2018-12-15T02:12:55.670Z,7.37
2018-12-15T02:15:24.122Z,6.77
2018-12-15T02:17:52.525Z,6.83
2018-12-15T02:20:20.925Z,7.47
2018-12-15T02:22:49.330Z,6.93
2018-12-15T02:25:17.720Z,7.27
2018-12-15T02:27:46.122Z,6.77
2018-12-15T02:30:14.513Z,6.40
2018-12-15T02:32:42.907Z,6.57
2018-12-15T02:35:11.311Z,6.37
2018-12-15T02:37:39.694Z,6.60
2018-12-15T02:40:08.077Z,6.67
2018-12-15T02:42:36.464Z,7.07
2018-12-15T02:45:04.867Z,6.60
2018-12-15T02:47:33.267Z,6.53
2018-12-15T02:50:01.659Z,6.30
2018-12-15T02:52:30.050Z,6.53
2018-12-15T02:54:58.435Z,6.97
2018-12-15T02:57:26.821Z,7.00
2018-12-15T03:02:29.796Z,6.43
2018-12-15T03:04:58.184Z,6.37
2018-12-15T03:07:26.564Z,6.23
2018-12-15T03:09:54.966Z,6.63
2018-12-15T03:12:23.350Z,5.87
2018-12-15T03:14:51.719Z,6.30
2018-12-15T03:17:20.104Z,6.10
2018-12-15T03:19:48.500Z,6.37
2018-12-15T03:22:16.888Z,6.20
2018-12-15T03:24:45.297Z,6.80
2018-12-15T03:27:13.724Z,6.37
2018-12-15T03:29:42.087Z,5.97
2018-12-15T03:32:10.943Z,6.00
2018-12-15T03:34:39.331Z,6.60
2018-12-15T03:37:07.740Z,5.90
2018-12-15T03:39:36.122Z,5.83
2018-12-15T03:42:04.545Z,5.50
2018-12-15T03:44:32.947Z,6.17
2018-12-15T03:47:01.353Z,6.20
2018-12-15T03:49:29.722Z,6.73
2018-12-15T03:51:58.103Z,5.63
2018-12-15T03:54:26.507Z,6.23
2018-12-15T03:56:54.892Z,6.20
2018-12-15T03:59:23.792Z,5.67
2018-12-15T04:01:52.315Z,6.50
2018-12-15T04:04:20.827Z,6.30
2018-12-15T04:06:49.192Z,6.30
2018-12-15T04:09:17.610Z,5.67
2018-12-15T04:11:45.998Z,6.10
2018-12-15T04:14:14.390Z,6.47
2018-12-15T04:16:42.778Z,6.30
2018-12-15T04:20:14.160Z,6.60
2018-12-15T04:22:42.543Z,5.80
2018-12-15T04:25:10.942Z,6.50
2018-12-15T04:27:39.325Z,6.13
2018-12-15T04:30:08.774Z,6.47
2018-12-15T04:32:37.194Z,6.33
2018-12-15T04:35:05.794Z,6.90
2018-12-15T04:37:34.184Z,5.97
2018-12-15T04:40:02.548Z,6.20
2018-12-15T04:42:30.937Z,5.73
2018-12-15T04:44:59.322Z,6.50
2018-12-15T04:47:27.920Z,6.13
2018-12-15T04:49:56.291Z,6.13
2018-12-15T04:52:24.639Z,6.20
2018-12-15T04:54:53.000Z,6.37
2018-12-15T04:57:21.351Z,6.07
2018-12-15T04:59:49.713Z,6.00
2018-12-15T05:02:18.070Z,6.00
2018-12-15T05:04:46.443Z,6.97
2018-12-15T05:07:14.796Z,5.90
2018-12-15T05:09:43.151Z,6.80
2018-12-15T05:12:11.495Z,6.47
2018-12-15T05:14:39.872Z,6.07
2018-12-15T05:17:08.243Z,6.27
2018-12-15T05:19:36.601Z,6.40
2018-12-15T05:22:04.956Z,6.20
2018-12-15T05:24:33.312Z,6.30
2018-12-15T05:27:01.661Z,6.70
2018-12-15T05:29:30.005Z,5.60
2018-12-15T05:31:58.348Z,6.20
2018-12-15T05:34:26.697Z,6.00
2018-12-15T05:36:55.059Z,6.00
2018-12-15T05:39:23.452Z,5.93
2018-12-15T05:41:51.800Z,6.17
2018-12-15T05:44:20.156Z,5.97
2018-12-15T05:48:24.815Z,5.97
2018-12-15T05:50:48.356Z,5.90
2018-12-15T05:53:16.765Z,6.37
2018-12-15T05:55:45.176Z,5.80
2018-12-15T05:58:13.512Z,6.57
2018-12-15T06:00:41.871Z,6.07
2018-12-15T06:03:10.226Z,6.17
2018-12-15T06:05:38.597Z,6.00
2018-12-15T06:08:06.943Z,5.37
2018-12-15T06:10:35.323Z,6.73
2018-12-15T06:13:03.663Z,6.30
2018-12-15T06:15:32.019Z,6.20
2018-12-15T06:18:00.383Z,6.00
2018-12-15T06:20:28.733Z,5.83
2018-12-15T06:22:57.099Z,5.57
2018-12-15T06:25:25.455Z,6.23
2018-12-15T06:27:53.804Z,5.67
2018-12-15T06:30:22.161Z,6.27
2018-12-15T06:32:50.747Z,6.33
2018-12-15T06:35:19.089Z,5.83
2018-12-15T06:37:47.465Z,6.17
2018-12-15T06:40:15.827Z,6.07
2018-12-15T06:42:44.175Z,5.23
2018-12-15T06:45:13.282Z,6.00
2018-12-15T06:47:41.653Z,5.60
2018-12-15T06:50:10.009Z,5.67
2018-12-15T06:52:38.399Z,5.83
2018-12-15T06:55:06.770Z,5.13
2018-12-15T06:57:35.127Z,5.20
2018-12-15T07:00:03.520Z,6.00
2018-12-15T07:02:31.893Z,5.30
2018-12-15T07:05:00.236Z,5.60
2018-12-15T07:07:28.564Z,5.27
2018-12-15T07:09:56.919Z,5.50
2018-12-15T07:12:25.298Z,5.13
2018-12-15T07:14:53.681Z,5.83
2018-12-15T07:17:22.082Z,4.97
2018-12-15T07:19:50.442Z,4.90
2018-12-15T07:22:18.857Z,5.00
2018-12-15T07:24:47.212Z,4.83
2018-12-15T07:27:15.575Z,5.12
2018-12-15T07:29:43.959Z,5.13
2018-12-15T07:32:12.326Z,5.10
2018-12-15T07:34:40.703Z,4.97
2018-12-15T07:37:09.067Z,5.10
2018-12-15T07:39:37.460Z,4.93
2018-12-15T07:42:05.823Z,5.47
2018-12-15T07:44:34.174Z,4.67
2018-12-15T07:47:02.623Z,4.43
2018-12-15T07:49:30.999Z,5.23
2018-12-15T07:51:59.368Z,5.13
2018-12-15T07:54:34.048Z,5.10
2018-12-15T07:57:02.968Z,5.10
2018-12-15T07:59:32.228Z,5.13
2018-12-15T08:02:00.563Z,4.97
2018-12-15T08:04:28.923Z,5.33
2018-12-15T08:06:57.282Z,5.80
2018-12-15T08:09:25.652Z,4.83
2018-12-15T08:11:59.299Z,4.77
2018-12-15T08:14:27.786Z,5.30
2018-12-15T08:16:56.131Z,5.03
2018-12-15T08:19:24.502Z,4.93
2018-12-15T08:21:52.849Z,5.07
2018-12-15T08:24:21.224Z,4.47
2018-12-15T08:26:49.586Z,4.83
2018-12-15T08:29:17.967Z,4.30
2018-12-15T08:31:46.328Z,4.90
2018-12-15T08:34:14.704Z,4.33
2018-12-15T08:36:43.091Z,4.83
2018-12-15T08:39:11.440Z,5.30
2018-12-15T08:41:39.823Z,4.83
2018-12-15T08:44:08.171Z,4.27
2018-12-15T08:46:36.645Z,4.97
2018-12-15T08:49:05.003Z,4.70
2018-12-15T08:51:33.378Z,5.00
2018-12-15T08:54:01.778Z,4.83
2018-12-15T08:56:30.155Z,4.37
2018-12-15T08:58:58.537Z,4.03
2018-12-15T09:01:26.899Z,4.37
2018-12-15T09:03:55.439Z,4.70
2018-12-15T09:06:23.858Z,4.07
2018-12-15T09:08:52.185Z,4.23
2018-12-15T09:11:20.570Z,4.23
2018-12-15T09:13:48.930Z,4.10
2018-12-15T09:16:17.304Z,3.87
2018-12-15T09:18:46.261Z,4.10
2018-12-15T09:21:14.607Z,4.03
2018-12-15T09:23:42.986Z,4.37
2018-12-15T09:26:11.343Z,3.70
2018-12-15T09:28:39.715Z,4.03
2018-12-15T09:31:08.087Z,4.30
2018-12-15T09:36:11.194Z,3.37
2018-12-15T09:38:39.592Z,3.93
2018-12-15T09:41:07.949Z,4.33
2018-12-15T09:43:36.310Z,4.53
2018-12-15T09:46:04.699Z,3.73
2018-12-15T09:48:37.187Z,4.17
2018-12-15T09:51:05.534Z,4.20
2018-12-15T09:53:33.895Z,4.00
2018-12-15T09:56:02.271Z,4.30
2018-12-15T09:58:30.619Z,4.00
2018-12-15T10:00:58.984Z,3.87
2018-12-15T10:03:27.346Z,4.53
2018-12-15T10:05:55.695Z,3.77
2018-12-15T10:08:24.045Z,3.87
2018-12-15T10:10:52.380Z,4.10
2018-12-15T10:13:20.763Z,4.50
2018-12-15T10:15:49.133Z,3.93
2018-12-15T10:18:17.531Z,4.37
2018-12-15T10:20:45.876Z,4.20
2018-12-15T10:23:14.229Z,3.90
2018-12-15T10:25:42.605Z,4.23
2018-12-15T10:28:10.991Z,4.23
2018-12-15T10:30:44.735Z,4.30
2018-12-15T10:33:13.106Z,3.87
2018-12-15T10:35:41.486Z,4.20
2018-12-15T10:38:09.850Z,4.40
2018-12-15T10:40:38.228Z,4.23
2018-12-15T10:43:06.592Z,4.27
2018-12-15T10:45:34.943Z,4.17
2018-12-15T10:48:03.336Z,4.43
2018-12-15T10:50:31.694Z,5.00
2018-12-15T10:53:00.044Z,4.63
2018-12-15T10:55:28.403Z,4.27
2018-12-15T10:57:56.778Z,4.20
2018-12-15T11:00:29.342Z,4.50
2018-12-15T11:02:57.708Z,5.37
2018-12-15T11:05:27.084Z,4.73
2018-12-15T11:07:55.451Z,11.13
2018-12-15T11:10:23.803Z,8.13
2018-12-15T11:12:52.167Z,13.77
2018-12-15T11:15:20.591Z,10.17
2018-12-15T11:17:49.972Z,9.50
2018-12-15T11:20:18.363Z,9.63
2018-12-15T11:22:46.726Z,8.57
2018-12-15T11:25:15.107Z,8.43
2018-12-15T11:27:43.492Z,8.30
2018-12-15T11:30:11.872Z,8.23
2018-12-15T11:32:40.270Z,6.63
2018-12-15T11:35:08.714Z,7.87
2018-12-15T11:37:37.087Z,7.20
2018-12-15T11:40:06.191Z,7.80
2018-12-15T11:42:34.554Z,7.13
2018-12-15T11:45:02.950Z,7.27
2018-12-15T11:52:16.991Z,9.73
2018-12-15T11:54:45.359Z,7.00
2018-12-15T11:57:13.766Z,6.63
2018-12-15T11:59:42.109Z,5.57
2018-12-15T12:02:10.482Z,5.80
2018-12-15T12:04:38.846Z,6.83
2018-12-15T12:07:07.892Z,5.53
2018-12-15T12:10:26.844Z,6.87
2018-12-15T12:12:55.204Z,6.10
2018-12-15T12:15:23.557Z,5.37
2018-12-15T12:17:51.927Z,5.43
2018-12-15T12:20:20.280Z,5.70
2018-12-15T12:22:48.632Z,6.03
2018-12-15T12:25:16.992Z,7.40
2018-12-15T12:27:45.340Z,6.97
2018-12-15T12:30:13.722Z,7.60
2018-12-15T12:32:42.142Z,7.93
2018-12-15T12:35:10.503Z,8.43
2018-12-15T12:37:38.890Z,9.37
2018-12-15T12:40:07.249Z,9.47
2018-12-15T12:42:35.641Z,8.33
2018-12-15T12:45:04.244Z,8.57
2018-12-15T12:47:32.587Z,9.00
2018-12-15T12:50:00.954Z,8.43
2018-12-15T12:52:29.299Z,9.57
2018-12-15T12:54:57.707Z,8.43
2018-12-15T12:57:26.052Z,8.50
2018-12-15T12:59:54.420Z,8.60
2018-12-15T13:02:22.756Z,8.73
2018-12-15T13:04:51.111Z,9.50
2018-12-15T13:07:19.452Z,9.33
2018-12-15T13:09:47.826Z,8.13
2018-12-15T13:12:18.580Z,8.30
2018-12-15T13:14:46.924Z,8.10
2018-12-15T13:17:15.292Z,8.10
2018-12-15T13:19:43.646Z,8.33
2018-12-15T13:22:11.996Z,8.63
2018-12-15T13:24:40.370Z,9.40
2018-12-15T13:27:08.761Z,9.27
2018-12-15T13:29:37.099Z,8.17
2018-12-15T13:32:11.899Z,8.50
2018-12-15T13:34:40.258Z,8.37
2018-12-15T13:37:08.650Z,8.70
2018-12-15T13:39:37.003Z,8.53
2018-12-15T13:42:05.378Z,8.17
2018-12-15T13:44:33.782Z,8.27
2018-12-15T13:47:02.128Z,8.00
2018-12-15T13:49:30.519Z,7.70
2018-12-15T13:51:58.905Z,8.23
2018-12-15T13:54:27.248Z,8.20
2018-12-15T13:56:55.710Z,7.50
2018-12-15T13:59:24.082Z,7.53
2018-12-15T14:01:52.433Z,8.03
2018-12-15T14:04:20.801Z,7.67
2018-12-15T14:06:49.162Z,7.57
2018-12-15T14:09:17.500Z,6.93
2018-12-15T14:11:45.863Z,6.90
2018-12-15T14:14:14.231Z,7.10
2018-12-15T14:16:42.603Z,7.20
2018-12-15T14:19:10.951Z,7.43
2018-12-15T14:21:39.311Z,7.60
2018-12-15T14:24:07.666Z,7.43
2018-12-15T14:26:36.035Z,7.33
2018-12-15T14:29:04.383Z,7.07
2018-12-15T14:31:32.759Z,6.80
2018-12-15T14:34:01.158Z,7.23
2018-12-15T14:36:29.512Z,6.60
2018-12-15T14:38:57.861Z,6.33
2018-12-15T14:41:26.221Z,7.03
2018-12-15T14:43:54.594Z,7.40
2018-12-15T14:46:22.932Z,6.80
2018-12-15T14:48:51.305Z,7.00
2018-12-15T14:54:18.499Z,7.20
2018-12-15T14:56:46.855Z,6.57
2018-12-15T14:59:15.854Z,6.60
2018-12-15T15:01:44.204Z,6.53
2018-12-15T15:04:12.574Z,6.87
2018-12-15T15:06:40.923Z,7.00
2018-12-15T15:09:09.274Z,6.47
2018-12-15T15:11:37.662Z,6.40
2018-12-15T15:14:06.022Z,6.20
2018-12-15T15:16:34.422Z,6.47
2018-12-15T15:19:02.787Z,7.13
2018-12-15T15:21:31.629Z,6.30
2018-12-15T15:23:59.989Z,6.57
2018-12-15T15:26:28.354Z,6.30
2018-12-15T15:28:56.724Z,6.40
2018-12-15T15:31:25.087Z,6.40
2018-12-15T15:33:53.470Z,6.10
2018-12-15T15:36:21.804Z,6.10
2018-12-15T15:38:50.152Z,6.00
2018-12-15T15:41:18.501Z,6.90
2018-12-15T15:43:46.852Z,6.90
2018-12-15T15:46:15.263Z,5.93
2018-12-15T15:48:43.634Z,6.03
2018-12-15T15:51:11.993Z,6.43
2018-12-15T15:53:40.352Z,6.10
2018-12-15T15:56:08.706Z,6.13
2018-12-15T15:58:37.077Z,6.53
2018-12-15T16:01:05.464Z,6.10
2018-12-15T16:03:33.808Z,6.07
2018-12-15T16:06:02.172Z,6.53
2018-12-15T16:08:30.567Z,6.13
2018-12-15T16:10:58.927Z,5.90
2018-12-15T16:13:27.290Z,6.30
2018-12-15T16:15:55.624Z,6.00
2018-12-15T16:18:23.963Z,6.57
2018-12-15T16:20:52.319Z,5.93
2018-12-15T16:23:20.666Z,5.67
2018-12-15T16:25:49.063Z,5.37
2018-12-15T16:28:17.526Z,5.67
2018-12-15T16:30:45.893Z,6.43
2018-12-15T16:33:14.259Z,5.70
2018-12-15T16:35:42.588Z,5.80
2018-12-15T16:38:10.947Z,5.93
2018-12-15T16:40:39.292Z,6.00
2018-12-15T16:43:07.667Z,5.87
2018-12-15T16:45:36.022Z,5.73
2018-12-15T16:48:04.406Z,6.00
2018-12-15T16:50:32.752Z,5.57
2018-12-15T16:53:01.218Z,6.00
2018-12-15T16:55:29.576Z,5.83
2018-12-15T16:57:57.993Z,5.93
2018-12-15T17:00:26.351Z,7.15
2018-12-15T17:02:54.715Z,6.03
2018-12-15T17:05:23.064Z,6.03
2018-12-15T17:08:00.799Z,5.40
2018-12-15T17:10:38.952Z,5.47
2018-12-15T17:13:07.326Z,5.83
2018-12-15T17:15:35.697Z,5.77
2018-12-15T17:18:04.139Z,6.93
2018-12-15T17:21:03.103Z,6.30
2018-12-15T17:23:31.472Z,5.60
2018-12-15T17:25:59.842Z,5.90
2018-12-15T17:28:28.307Z,5.17
2018-12-15T17:30:56.706Z,6.40
2018-12-15T17:33:25.056Z,5.77
2018-12-15T17:35:53.416Z,5.33
2018-12-15T17:38:21.790Z,5.67
2018-12-15T17:40:50.171Z,5.50
2018-12-15T17:43:18.554Z,5.40
2018-12-15T17:45:46.939Z,5.27
2018-12-15T17:48:15.315Z,5.10
2018-12-15T17:50:43.675Z,5.53
2018-12-15T17:53:12.058Z,5.20
2018-12-15T17:55:40.424Z,6.00
2018-12-15T17:58:14.525Z,5.20
2018-12-15T18:00:39.164Z,5.80
2018-12-15T18:03:07.553Z,5.77
2018-12-15T18:05:35.903Z,5.40
2018-12-15T18:08:04.280Z,5.63
2018-12-15T18:10:32.649Z,6.00
2018-12-15T18:13:00.999Z,5.60
2018-12-15T18:15:29.354Z,5.40
2018-12-15T18:17:57.739Z,5.50
2018-12-15T18:20:26.128Z,5.43
2018-12-15T18:22:54.504Z,5.97
2018-12-15T18:25:22.906Z,6.03
2018-12-15T18:27:51.293Z,5.67
2018-12-15T18:30:19.660Z,5.70
2018-12-15T18:32:48.036Z,5.43
2018-12-15T18:35:16.414Z,5.33
2018-12-15T18:37:44.831Z,6.43
2018-12-15T18:40:13.216Z,5.27
2018-12-15T18:42:41.622Z,5.63
2018-12-15T18:45:10.144Z,5.80
2018-12-15T18:47:38.526Z,5.67
2018-12-15T18:50:08.590Z,5.80
2018-12-15T18:52:37.002Z,5.73
2018-12-15T18:55:05.398Z,5.53
2018-12-15T18:57:33.786Z,5.63
2018-12-15T19:00:02.169Z,5.00
2018-12-15T19:02:30.562Z,5.80
2018-12-15T19:04:58.944Z,5.70
2018-12-15T19:07:27.304Z,5.53
2018-12-15T19:09:55.695Z,5.17
2018-12-15T19:12:24.103Z,5.70
2018-12-15T19:14:55.291Z,5.10
2018-12-15T19:17:25.540Z,4.87
2018-12-15T19:19:53.938Z,5.63
2018-12-15T19:22:22.342Z,5.40
2018-12-15T19:24:50.711Z,5.10
2018-12-15T19:27:19.096Z,5.87
2018-12-15T19:29:47.506Z,5.13
2018-12-15T19:32:15.875Z,5.93
2018-12-15T19:34:44.316Z,5.03
2018-12-15T19:37:12.695Z,5.13
2018-12-15T19:39:41.064Z,5.20
2018-12-15T19:42:09.424Z,5.30
2018-12-15T19:44:37.809Z,4.93
2018-12-15T19:47:06.194Z,5.40
2018-12-15T19:49:34.587Z,4.77
2018-12-15T19:52:02.984Z,4.80
2018-12-15T19:54:31.348Z,5.33
2018-12-15T19:56:59.754Z,4.77
2018-12-15T19:59:28.172Z,5.10
2018-12-15T20:02:02.836Z,5.00
2018-12-15T20:04:31.248Z,4.77
2018-12-15T20:06:59.623Z,4.67
2018-12-15T20:09:28.027Z,4.90
2018-12-15T20:11:56.435Z,4.77
2018-12-15T20:14:24.890Z,5.07
2018-12-15T20:16:53.272Z,5.67
2018-12-15T20:19:21.720Z,4.40
2018-12-15T20:21:50.104Z,4.77
2018-12-15T20:24:18.513Z,4.60
2018-12-15T20:26:46.911Z,4.53
2018-12-15T20:29:15.310Z,4.20
2018-12-15T20:31:43.710Z,4.93
2018-12-15T20:34:12.106Z,5.00
2018-12-15T20:36:40.491Z,4.53
2018-12-15T20:39:09.402Z,4.50
2018-12-15T20:41:37.771Z,4.50
2018-12-15T20:44:06.140Z,4.67
2018-12-15T20:46:34.528Z,5.03
2018-12-15T20:49:02.950Z,4.60
2018-12-15T20:51:31.332Z,4.70
2018-12-15T20:53:59.717Z,4.77
2018-12-15T20:56:28.099Z,4.77
2018-12-15T20:58:56.526Z,4.43
2018-12-15T21:01:25.014Z,4.47
2018-12-15T21:03:53.407Z,4.83
2018-12-15T21:06:21.793Z,4.43
2018-12-15T21:08:50.203Z,4.37
2018-12-15T21:11:24.042Z,4.63
2018-12-15T21:13:49.962Z,5.13
2018-12-15T21:16:18.443Z,5.67
2018-12-15T21:18:46.854Z,5.33
2018-12-15T21:21:15.273Z,5.20
2018-12-15T21:23:44.937Z,5.70
2018-12-15T21:26:13.363Z,5.17
2018-12-15T21:28:42.188Z,4.97
2018-12-15T21:31:10.582Z,4.90
2018-12-15T21:33:39.066Z,4.60
2018-12-15T21:37:36.896Z,4.50
2018-12-15T21:40:05.702Z,4.50
2018-12-15T21:42:34.086Z,4.83
2018-12-15T21:45:02.773Z,4.40
2018-12-15T21:47:32.004Z,4.77
2018-12-15T21:50:00.410Z,4.57
2018-12-15T21:52:44.311Z,4.40
2018-12-15T21:55:12.821Z,4.27
2018-12-15T21:57:41.232Z,4.63
2018-12-15T22:00:09.603Z,4.73
2018-12-15T22:02:37.992Z,4.17
2018-12-15T22:05:06.386Z,4.40
2018-12-15T22:07:34.780Z,4.17
2018-12-15T22:10:03.169Z,4.57
2018-12-15T22:12:31.576Z,4.63
2018-12-15T22:15:00.559Z,4.77
2018-12-15T22:17:28.940Z,4.17
2018-12-15T22:19:57.333Z,4.80
2018-12-15T22:22:25.751Z,4.80
2018-12-15T22:24:54.251Z,4.67
2018-12-15T22:27:22.659Z,4.67
2018-12-15T22:29:51.037Z,3.80
2018-12-15T22:32:19.449Z,4.10
2018-12-15T22:34:47.832Z,4.50
2018-12-15T22:37:16.240Z,4.70
2018-12-15T22:39:44.664Z,4.20
2018-12-15T22:42:13.066Z,4.37
2018-12-15T22:44:41.445Z,4.60
2018-12-15T22:47:09.831Z,4.83
2018-12-15T22:49:38.210Z,4.87
2018-12-15T22:52:09.744Z,4.97
2018-12-15T22:54:37.027Z,5.20
2018-12-15T22:57:05.634Z,4.93
2018-12-15T22:59:34.637Z,4.43
2018-12-15T23:02:03.016Z,4.87
2018-12-15T23:04:31.483Z,4.70
2018-12-15T23:06:59.998Z,4.83
2018-12-15T23:09:30.500Z,5.40
2018-12-15T23:11:59.121Z,4.83
2018-12-15T23:14:27.544Z,5.30
2018-12-15T23:16:55.917Z,4.67
2018-12-15T23:19:24.315Z,5.47
2018-12-15T23:21:53.955Z,5.73
2018-12-15T23:24:22.423Z,5.27
2018-12-15T23:26:50.925Z,5.37
2018-12-15T23:29:20.830Z,5.27
2018-12-15T23:31:49.246Z,4.87
2018-12-15T23:34:18.305Z,5.10
2018-12-15T23:36:46.691Z,5.23
2018-12-15T23:39:15.209Z,5.57
2018-12-15T23:41:43.601Z,5.33
2018-12-15T23:44:12.061Z,5.53
2018-12-15T23:46:40.521Z,5.80
2018-12-15T23:49:08.923Z,5.80
2018-12-15T23:51:37.506Z,5.40
2018-12-15T23:54:05.914Z,6.13
2018-12-15T23:56:34.321Z,5.33
2018-12-15T23:59:02.719Z,5.93
